CPX241 Details

Departure: Huntsville International Airport (KHSV)
Arrival: Miami International Airport (KMIA)
Route: RMG ATL YANTI Q89 PRMUS OMN HILEY7


Current Weather Information
KHSV 252329Z 32012KT 10SM FEW048 SCT060 SCT075 18/11 A2999 RMK AO2 TSB07E23 CB DSNT E T01830106
KMIA 252253Z 12010KT 10SM FEW025 FEW042 FEW250 25/19 A3002 RMK AO2 SLP164 T02500194